Aérodrome :
LOGIN :

S'inscrire | Disclaimer

   EN    FR    IT 

 










Légende :    VFR   VFR Marginal   IFR   IFR Intensif   IFR Très Intensif
Visi : 
Plafond : 
>= 8 km
>= 3000ft
5 à 8 km
1000 à 3000 ft
1500m à 5 km
500 à 1000 ft
800 à 1500m
200 à 500 ft
< 800m
< 200 ft
Symboles :   Orages  Brouillard  Fortes neiges  Fortes précipitations  Vent > 20 kt
SIGMETs :   Divers  Orages  Givrage  Turbulence  Onde Orograph.  Cendres Volcan.







- Altitude de l'aérodrome : 2026 ft
- Code IATA : TOJ


LETO - Madrid Torrejon

DERNIER METAR :
  • 181500Z 17003KT 100V250 9999 FEW050CB 29/14 Q1017 NOSIG

METARs EXPIRÉS :
  • 181400Z VRB01KT 9999 VCTS FEW050CB 29/15 Q1017 NOSIG
  • 181300Z 34001KT 9999 FEW050 27/17 Q1018 NOSIG
  • 181200Z 27002KT 9999 FEW040 26/17 Q1019 NOSIG

TAF TAF LETO
Valide du 18 à 12h jusqu'au 19 à 12h UTC


181100Z 1812/1912 VRB05KT CAVOK TX30/1815Z TN17/1906Z
TEMPO 1813/1820 FEW045TCU
PROB40
TEMPO 1815/1820 VRB15G25KT TS SHRA SCT040CB
Pas de NOTAMs connus pour ce terrain.
2 SIGMETs publiés pour la FIR Madrid (LECM) :
 
Orages noyés dans la masse
LECM SIGMET 2 VALID 181430/181630 LEVA
LECM MADRID FIR/UIR EMBD TS FCST WI N40 W00530 - N4030 W00110 - N3710 W002 - N3640 W00530 - N40 W00530 TOP FL380 STNR NC=
Orages noyés dans la masse
LECM SIGMET 1 VALID 181430/181630 LEVA
LECM MADRID FIR/UIR EMBD TS FCST WI N4010 W00610 - N43 W00210 - N4250 W00040 - N4140 W00150 - N41 W001 - N4010 W00610 TOP FL380 STNR NC=



MET'MAP, la Météo Aéronautique d'un coup d'oeil ! - Copyright ORBIFLY Décembre 2007 - Disclaimer

ORBIFLY MET'MAP TEAM :

Programmation & Développement : Alexandra Zaïnal
Conception & Développement : Baudouin d'Aumeries
Co-Programmation & Développement : Marc-Olivier Méhu
Soutien technique & logistique : Manuel Goepfert

Contact : metmap@orbifly.com




SOURCES & CREDITS :

   NOAA